| time (UTC) | temp F | wind direction | speed MPH | gust MPH | rain 1hr in | rain 24hr in | rain mn in | humidity % | barometer mb |
| 20260508164918 | 53 | 266 | 5.0 | 10.0 | 0.00 | 0.00 | 0.00 | 42 | 1009.1 |
| 20260508164836 | 53 | 266 | 5.0 | 10.0 | 0.00 | 0.00 | 0.00 | 42 | 1009.1 |
| 20260508164825 | 53 | 295 | 3.0 | 11.0 | 0.00 | 0.00 | 0.00 | 30 | 1010.8 |
| 20260508163404 | 52 | 311 | 4.0 | 10.0 | 0.00 | 0.00 | 0.00 | 30 | 1010.9 |
| 20260508163336 | 53 | 327 | 4.0 | 9.0 | 0.00 | 0.00 | 0.00 | 42 | 1009.2 |
| 20260508161848 | 53 | 227 | 4.0 | 10.0 | 0.00 | 0.00 | 0.00 | 28 | 1010.9 |
| 20260508161813 | 52 | 306 | 2.0 | 8.0 | 0.00 | 0.00 | 0.00 | 42 | 1009.2 |
| 20260508160355 | 53 | 269 | 4.0 | 14.0 | 0.00 | 0.00 | 0.00 | 28 | 1010.9 |
| 20260508160317 | 53 | 304 | 4.0 | 9.0 | 0.00 | 0.00 | 0.00 | 41 | 1009.2 |
| 20260508154903 | 52 | 310 | 3.0 | 8.0 | 0.00 | 0.00 | 0.00 | 28 | 1010.9 |
| 20260508154855 | 53 | 341 | 3.0 | 11.0 | 0.00 | 0.00 | 0.00 | 42 | 1009.4 |
| 20260508153351 | 52 | 271 | 3.0 | 10.0 | 0.00 | 0.00 | 0.00 | 28 | 1011.1 |
| 20260508153330 | 52 | 302 | 4.0 | 12.0 | 0.00 | 0.00 | 0.00 | 41 | 1009.4 |
| 20260508151907 | 52 | 271 | 4.0 | 11.0 | 0.00 | 0.00 | 0.00 | 32 | 1010.9 |
| 20260508151856 | 52 | 291 | 6.0 | 11.0 | 0.00 | 0.00 | 0.00 | 39 | 1009.1 |
| 20260508150352 | 53 | 234 | 1.0 | 10.0 | 0.00 | 0.00 | 0.00 | 42 | 1009.1 |
| 20260508150328 | 52 | 351 | 8.0 | 15.0 | 0.00 | 0.00 | 0.00 | 26 | 1010.9 |
| 20260508144835 | 52 | 156 | 7.0 | 13.0 | 0.00 | 0.00 | 0.00 | 26 | 1010.9 |
| 20260508144820 | 52 | 263 | 4.0 | 9.0 | 0.00 | 0.00 | 0.00 | 41 | 1009.0 |
| 20260508143346 | 52 | 337 | 3.0 | 6.0 | 0.00 | 0.00 | 0.00 | 45 | 1009.3 |
| 20260508143336 | 52 | 301 | 7.0 | 15.0 | 0.00 | 0.00 | 0.00 | 29 | 1011.1 |
| 20260508141839 | 50 | 289 | 6.0 | 14.0 | 0.00 | 0.00 | 0.00 | 31 | 1011.0 |
| 20260508141812 | 52 | 304 | 3.0 | 7.0 | 0.00 | 0.00 | 0.00 | 48 | 1009.1 |
| 20260508140337 | 51 | 220 | 1.0 | 5.0 | 0.00 | 0.00 | 0.00 | 39 | 1011.2 |
| 20260508140335 | 50 | 138 | 1.0 | 4.0 | 0.00 | 0.00 | 0.00 | 56 | 1009.4 |
| 20260508134905 | 49 | 218 | 3.0 | 7.0 | 0.00 | 0.00 | 0.00 | 38 | 1011.4 |
| 20260508134825 | 48 | 5 | 1.0 | 4.0 | 0.00 | 0.00 | 0.00 | 56 | 1009.8 |
| 20260508133354 | 49 | 321 | 5.0 | 8.0 | 0.00 | 0.00 | 0.00 | 40 | 1011.6 |
| 20260508133349 | 48 | 296 | 1.0 | 6.0 | 0.00 | 0.00 | 0.00 | 58 | 1009.9 |
| 20260508131926 | 47 | 299 | 1.0 | 7.0 | 0.00 | 0.00 | 0.00 | 62 | 1009.9 |
| 20260508131854 | 48 | 321 | 6.0 | 12.0 | 0.00 | 0.00 | 0.00 | 41 | 1011.8 |
| 20260508131822 | 47 | 299 | 1.0 | 7.0 | 0.00 | 0.00 | 0.00 | 62 | 1009.9 |
| 20260508130348 | 44 | 275 | 0.0 | 6.0 | 0.00 | 0.00 | 0.00 | 65 | 1010.0 |
| 20260508130335 | 47 | 341 | 3.0 | 8.0 | 0.00 | 0.00 | 0.00 | 45 | 1011.9 |
| 20260508124926 | 44 | 262 | 3.0 | 5.0 | 0.00 | 0.00 | 0.00 | 49 | 1011.9 |
| 20260508124828 | 44 | 263 | 0.0 | 3.0 | 0.00 | 0.00 | 0.00 | 64 | 1010.0 |
| 20260508123409 | 43 | 58 | 0.0 | 2.0 | 0.00 | 0.00 | 0.00 | 52 | 1012.0 |
| 20260508123347 | 44 | 281 | 3.0 | 5.0 | 0.00 | 0.00 | 0.00 | 63 | 1010.2 |
| 20260508121906 | 45 | 284 | 3.0 | 8.0 | 0.00 | 0.00 | 0.00 | 63 | 1009.9 |
| 20260508121839 | 43 | 48 | 0.0 | 3.0 | 0.00 | 0.00 | 0.00 | 52 | 1012.0 |
| 20260508120411 | 45 | 244 | 5.0 | 8.0 | 0.00 | 0.00 | 0.00 | 62 | 1009.9 |
| 20260508120355 | 42 | 244 | 3.0 | 3.0 | 0.00 | 0.00 | 0.00 | 52 | 1011.8 |
| 20260508114924 | 41 | 187 | 0.0 | 2.0 | 0.00 | 0.00 | 0.00 | 56 | 1011.7 |
| 20260508114849 | 45 | 241 | 2.0 | 8.0 | 0.00 | 0.00 | 0.00 | 63 | 1009.9 |
| 20260508113351 | 40 | 293 | 0.0 | 2.0 | 0.00 | 0.00 | 0.00 | 57 | 1011.7 |
| 20260508113324 | 44 | 336 | 1.0 | 9.0 | 0.00 | 0.00 | 0.00 | 65 | 1009.7 |
| 20260508111852 | 39 | 278 | 1.0 | 4.0 | 0.00 | 0.00 | 0.00 | 58 | 1011.5 |
| 20260508111847 | 42 | 150 | 2.0 | 6.0 | 0.00 | 0.00 | 0.00 | 74 | 1009.6 |
| 20260508110412 | 38 | 120 | 0.0 | 0.0 | 0.00 | 0.00 | 0.00 | 66 | 1011.2 |
| 20260508110314 | 40 | 165 | 1.0 | 2.0 | 0.00 | 0.00 | 0.00 | 76 | 1009.4 |
| 20260508104839 | 39 | 5 | 0.0 | 1.0 | 0.00 | 0.00 | 0.00 | 80 | 1009.2 |
| 20260508104832 | 37 | 120 | 0.0 | 0.0 | 0.00 | 0.00 | 0.00 | 67 | 1011.1 |
| 20260508103409 | 37 | 120 | 0.0 | 3.0 | 0.00 | 0.00 | 0.00 | 66 | 1011.0 |
| 20260508103335 | 38 | 329 | 0.0 | 0.0 | 0.00 | 0.00 | 0.00 | 87 | 1009.1 |
| 20260508101851 | 37 | 329 | 0.0 | 2.0 | 0.00 | 0.01 | 0.00 | 86 | 1009.1 |
| 20260508101847 | 36 | 120 | 1.0 | 3.0 | 0.00 | 0.00 | 0.00 | 65 | 1010.7 |
| 20260508100331 | 35 | 242 | 0.0 | 0.0 | 0.00 | 0.01 | 0.00 | 86 | 1008.9 |
| 20260508100328 | 36 | 109 | 1.0 | 3.0 | 0.00 | 0.00 | 0.00 | 62 | 1010.6 |
| 20260508094851 | 34 | 242 | 0.0 | 0.0 | 0.00 | 0.01 | 0.00 | 90 | 1008.8 |
| 20260508094830 | 36 | 84 | 1.0 | 2.0 | 0.00 | 0.00 | 0.00 | 60 | 1010.7 |
| 20260508093417 | 36 | 84 | 0.0 | 2.0 | 0.00 | 0.00 | 0.00 | 60 | 1010.5 |
| 20260508093330 | 34 | 304 | 0.0 | 0.0 | 0.00 | 0.01 | 0.00 | 92 | 1008.7 |
| 20260508091911 | 36 | 84 | 2.0 | 3.0 | 0.00 | 0.00 | 0.00 | 61 | 1010.5 |
| 20260508091828 | 34 | 304 | 0.0 | 0.0 | 0.00 | 0.01 | 0.00 | 93 | 1008.7 |
| 20260508090331 | 34 | 304 | 0.0 | 1.0 | 0.00 | 0.01 | 0.00 | 93 | 1008.8 |
| 20260508090327 | 35 | 81 | 3.0 | 4.0 | 0.00 | 0.00 | 0.00 | 63 | 1010.5 |
| 20260508084942 | 36 | 161 | 0.0 | 2.0 | 0.00 | 0.00 | 0.00 | 64 | 1010.4 |
| 20260508084859 | 36 | 161 | 0.0 | 2.0 | 0.00 | 0.00 | 0.00 | 64 | 1010.4 |
| 20260508084834 | 34 | 304 | 0.0 | 0.0 | 0.00 | 0.01 | 0.00 | 93 | 1008.6 |
| 20260508083414 | 37 | 87 | 0.0 | 0.0 | 0.00 | 0.00 | 0.00 | 62 | 1010.2 |
| 20260508083327 | 35 | 304 | 0.0 | 0.0 | 0.00 | 0.01 | 0.00 | 93 | 1008.5 |
| 20260508081854 | 38 | 87 | 0.0 | 0.0 | 0.00 | 0.00 | 0.00 | 59 | 1010.1 |
| 20260508081830 | 34 | 304 | 0.0 | 0.0 | 0.00 | 0.01 | 0.00 | 93 | 1008.5 |
| 20260508080416 | 33 | 304 | 0.0 | 2.0 | 0.00 | 0.01 | 0.00 | 93 | 1008.5 |
| 20260508080334 | 37 | 87 | 0.0 | 0.0 | 0.00 | 0.00 | 0.00 | 60 | 1010.2 |
| 20260508074838 | 37 | 87 | 0.0 | 0.0 | 0.00 | 0.00 | 0.00 | 59 | 1010.2 |
| 20260508074822 | 33 | 304 | 0.0 | 0.0 | 0.00 | 0.01 | 0.00 | 92 | 1008.5 |
| 20260508073403 | 37 | 87 | 0.0 | 0.0 | 0.00 | 0.00 | 0.00 | 59 | 1010.0 |
| 20260508073350 | 33 | 304 | 0.0 | 2.0 | 0.00 | 0.01 | 0.00 | 91 | 1008.4 |
| 20260508071946 | 37 | 89 | 1.0 | 3.0 | 0.00 | 0.00 | 0.00 | 58 | 1009.7 |
| 20260508071907 | 33 | 304 | 0.0 | 1.0 | 0.00 | 0.02 | 0.00 | 90 | 1008.1 |
| 20260508071824 | 33 | 304 | 0.0 | 1.0 | 0.00 | 0.02 | 0.00 | 90 | 1008.1 |
| 20260508070341 | 38 | 79 | 0.0 | 0.0 | 0.00 | 0.00 | 0.00 | 56 | 1009.7 |
| 20260508064902 | 34 | 304 | 1.0 | 2.0 | 0.00 | 0.02 | 0.00 | 90 | 1008.1 |
| 20260508064826 | 38 | 80 | 0.0 | 2.0 | 0.00 | 0.00 | 0.00 | 55 | 1009.6 |
| 20260508063416 | 34 | 304 | 0.0 | 2.0 | 0.00 | 0.02 | 0.00 | 89 | 1008.1 |
| 20260508063328 | 39 | 79 | 0.0 | 4.0 | 0.00 | 0.00 | 0.00 | 56 | 1009.6 |
| 20260508061832 | 39 | 74 | 0.0 | 2.0 | 0.00 | 0.00 | 0.00 | 54 | 1009.7 |
| 20260508061829 | 35 | 304 | 0.0 | 2.0 | 0.00 | 0.03 | 0.00 | 89 | 1008.1 |
| 20260508060418 | 39 | 74 | 2.0 | 3.0 | 0.00 | 0.00 | 0.00 | 55 | 1009.7 |
| 20260508060404 | 35 | 308 | 0.0 | 0.0 | 0.00 | 0.03 | 0.00 | 89 | 1008.1 |
| 20260508054837 | 39 | 91 | 1.0 | 2.0 | 0.00 | 0.00 | 0.00 | 54 | 1009.8 |
| 20260508054819 | 36 | 308 | 0.0 | 1.0 | 0.00 | 0.03 | 0.00 | 87 | 1008.1 |
| 20260508053343 | 40 | 91 | 0.0 | 2.0 | 0.00 | 0.00 | 0.00 | 53 | 1009.8 |
| 20260508053335 | 36 | 308 | 0.0 | 1.0 | 0.00 | 0.03 | 0.00 | 85 | 1008.0 |
| 20260508051932 | 40 | 91 | 2.0 | 2.0 | 0.00 | 0.00 | 0.00 | 53 | 1010.0 |
| 20260508051858 | 36 | 306 | 0.0 | 2.0 | 0.00 | 0.04 | 0.00 | 85 | 1008.3 |
| 20260508051829 | 40 | 91 | 2.0 | 2.0 | 0.00 | 0.00 | 0.00 | 53 | 1010.0 |
| 20260508050332 | 37 | 305 | 1.0 | 2.0 | 0.00 | 0.04 | 0.00 | 83 | 1008.3 |
| 20260508050328 | 40 | 91 | 0.0 | 1.0 | 0.00 | 0.00 | 0.00 | 52 | 1010.0 |
| 20260508044851 | 41 | 91 | 2.0 | 2.0 | 0.00 | 0.00 | 0.00 | 51 | 1010.1 |
| 20260508044846 | 37 | 305 | 0.0 | 1.0 | 0.00 | 0.04 | 0.00 | 81 | 1008.4 |
| 20260508043351 | 41 | 91 | 1.0 | 4.0 | 0.00 | 0.00 | 0.00 | 52 | 1010.2 |
| 20260508043321 | 37 | 305 | 0.0 | 0.0 | 0.00 | 0.04 | 0.00 | 80 | 1008.5 |
| 20260508041902 | 42 | 91 | 1.0 | 2.0 | 0.00 | 0.00 | 0.00 | 49 | 1010.3 |
| 20260508041829 | 38 | 305 | 0.0 | 0.0 | 0.00 | 0.05 | 0.04 | 80 | 1008.5 |
| 20260508040348 | 38 | 305 | 0.0 | 0.0 | 0.00 | 0.05 | 0.04 | 79 | 1008.5 |
| 20260508040336 | 42 | 91 | 3.0 | 4.0 | 0.00 | 0.00 | 0.00 | 48 | 1010.3 |
| 20260508034926 | 42 | 83 | 3.0 | 4.0 | 0.00 | 0.00 | 0.00 | 49 | 1010.2 |
| 20260508034827 | 38 | 305 | 0.0 | 0.0 | 0.00 | 0.05 | 0.04 | 77 | 1008.6 |
| 20260508033351 | 43 | 77 | 2.0 | 3.0 | 0.00 | 0.00 | 0.00 | 45 | 1010.3 |
| 20260508033344 | 39 | 305 | 0.0 | 0.0 | 0.00 | 0.05 | 0.04 | 76 | 1008.7 |
| 20260508031910 | 44 | 35 | 1.0 | 2.0 | 0.00 | 0.00 | 0.00 | 44 | 1010.3 |
| 20260508031850 | 39 | 305 | 0.0 | 0.0 | 0.00 | 0.06 | 0.04 | 77 | 1008.6 |
| 20260508030420 | 45 | 35 | 1.0 | 4.0 | 0.00 | 0.00 | 0.00 | 42 | 1010.2 |
| 20260508030329 | 39 | 305 | 0.0 | 1.0 | 0.00 | 0.06 | 0.04 | 77 | 1008.5 |
| 20260508024932 | 45 | 19 | 2.0 | 3.0 | 0.00 | 0.03 | 0.00 | 42 | 1010.2 |
| 20260508024833 | 40 | 305 | 1.0 | 1.0 | 0.00 | 0.06 | 0.04 | 77 | 1008.5 |
| 20260508024829 | 45 | 19 | 2.0 | 3.0 | 0.00 | 0.03 | 0.00 | 42 | 1010.2 |
| 20260508023424 | 46 | 349 | 2.0 | 5.0 | 0.00 | 0.03 | 0.00 | 41 | 1010.2 |
| 20260508023332 | 41 | 305 | 1.0 | 2.0 | 0.00 | 0.06 | 0.04 | 76 | 1008.6 |
| 20260508021851 | 41 | 288 | 0.0 | 1.0 | 0.00 | 0.08 | 0.04 | 73 | 1008.5 |
| 20260508021845 | 46 | 347 | 1.0 | 2.0 | 0.00 | 0.03 | 0.00 | 41 | 1010.1 |
| 20260508020448 | 47 | 299 | 0.0 | 2.0 | 0.00 | 0.03 | 0.00 | 37 | 1010.1 |
| 20260508020350 | 42 | 275 | 0.0 | 1.0 | 0.00 | 0.08 | 0.04 | 72 | 1008.5 |
| 20260508014915 | 48 | 339 | 0.0 | 2.0 | 0.00 | 0.03 | 0.00 | 38 | 1009.9 |
| 20260508014823 | 43 | 275 | 0.0 | 2.0 | 0.00 | 0.08 | 0.04 | 74 | 1008.4 |
| 20260508013417 | 48 | 300 | 0.0 | 1.0 | 0.00 | 0.03 | 0.00 | 36 | 1009.6 |
| 20260508013327 | 44 | 275 | 0.0 | 1.0 | 0.00 | 0.08 | 0.04 | 70 | 1008.1 |
| 20260508011911 | 49 | 267 | 0.0 | 1.0 | 0.00 | 0.03 | 0.00 | 34 | 1009.3 |
| 20260508011849 | 44 | 275 | 0.0 | 0.0 | 0.00 | 0.12 | 0.04 | 67 | 1007.7 |
| 20260508010330 | 45 | 275 | 0.0 | 0.0 | 0.00 | 0.12 | 0.04 | 64 | 1007.8 |
| 20260508010326 | 50 | 339 | 0.0 | 2.0 | 0.00 | 0.03 | 0.00 | 34 | 1009.3 |
| 20260508004922 | 50 | 251 | 0.0 | 2.0 | 0.00 | 0.07 | 0.00 | 31 | 1009.1 |
| 20260508004833 | 47 | 275 | 0.0 | 0.0 | 0.00 | 0.12 | 0.04 | 64 | 1007.6 |
| 20260508003338 | 49 | 275 | 0.0 | 1.0 | 0.00 | 0.12 | 0.04 | 63 | 1007.3 |
| 20260508003326 | 51 | 337 | 0.0 | 2.0 | 0.00 | 0.07 | 0.00 | 32 | 1008.9 |
| 20260508001856 | 51 | 278 | 1.0 | 9.0 | 0.00 | 0.07 | 0.00 | 30 | 1009.0 |
| 20260508001815 | 50 | 283 | 0.0 | 2.0 | 0.00 | 0.15 | 0.04 | 58 | 1007.3 |
| 20260508000405 | 52 | 289 | 1.0 | 6.0 | 0.00 | 0.07 | 0.00 | 31 | 1008.8 |
| 20260508000319 | 52 | 271 | 2.0 | 7.0 | 0.00 | 0.15 | 0.04 | 50 | 1007.1 |
| 20260507234826 | 53 | 276 | 1.0 | 7.0 | 0.00 | 0.16 | 0.00 | 29 | 1008.8 |
| 20260507234821 | 52 | 299 | 1.0 | 4.0 | 0.00 | 0.15 | 0.04 | 45 | 1007.0 |
| 20260507233345 | 53 | 295 | 3.0 | 5.0 | 0.00 | 0.15 | 0.04 | 45 | 1006.7 |
| 20260507233340 | 53 | 328 | 5.0 | 10.0 | 0.00 | 0.16 | 0.00 | 27 | 1008.4 |
| 20260507231840 | 54 | 301 | 5.0 | 18.0 | 0.00 | 0.16 | 0.00 | 26 | 1008.4 |
| 20260507231826 | 54 | 300 | 2.0 | 4.0 | 0.00 | 0.16 | 0.04 | 43 | 1006.7 |
| 20260507230432 | 55 | 281 | 5.0 | 13.0 | 0.00 | 0.16 | 0.00 | 26 | 1008.3 |
| 20260507230331 | 54 | 325 | 3.0 | 5.0 | 0.00 | 0.16 | 0.04 | 43 | 1006.7 |
| 20260507224908 | 56 | 251 | 4.0 | 16.0 | 0.00 | 0.18 | 0.00 | 26 | 1008.4 |
| 20260507224824 | 54 | 262 | 4.0 | 9.0 | 0.00 | 0.16 | 0.04 | 43 | 1006.7 |
| 20260507223332 | 56 | 208 | 7.0 | 15.0 | 0.00 | 0.18 | 0.00 | 26 | 1008.3 |
| 20260507223322 | 54 | 317 | 1.0 | 8.0 | 0.00 | 0.16 | 0.04 | 44 | 1006.7 |
| 20260507221911 | 56 | 276 | 4.0 | 11.0 | 0.00 | 0.18 | 0.00 | 32 | 1008.3 |
| 20260507221826 | 55 | 292 | 4.0 | 8.0 | 0.00 | 0.17 | 0.04 | 43 | 1006.6 |
| 20260507220345 | 56 | 238 | 6.0 | 14.0 | 0.00 | 0.18 | 0.00 | 26 | 1008.2 |
| 20260507220326 | 55 | 284 | 0.0 | 5.0 | 0.00 | 0.17 | 0.04 | 46 | 1006.7 |
| 20260507214935 | 56 | 324 | 5.0 | 11.0 | 0.00 | 0.20 | 0.00 | 27 | 1008.2 |
| 20260507214832 | 56 | 324 | 5.0 | 11.0 | 0.00 | 0.20 | 0.00 | 27 | 1008.2 |
| 20260507214829 | 55 | 313 | 2.0 | 5.0 | 0.00 | 0.17 | 0.04 | 43 | 1006.5 |
| 20260507213341 | 54 | 256 | 8.0 | 14.0 | 0.00 | 0.20 | 0.00 | 29 | 1008.3 |
| 20260507213325 | 56 | 283 | 2.0 | 11.0 | 0.00 | 0.17 | 0.04 | 43 | 1006.5 |
| 20260507211825 | 55 | 306 | 5.0 | 12.0 | 0.00 | 0.18 | 0.04 | 42 | 1006.4 |
| 20260507210327 | 54 | 317 | 6.0 | 12.0 | 0.00 | 0.20 | 0.00 | 31 | 1008.2 |
| 20260507210323 | 56 | 294 | 3.0 | 12.0 | 0.00 | 0.18 | 0.04 | 43 | 1006.3 |
| 20260507204916 | 56 | 304 | 5.0 | 12.0 | 0.00 | 0.18 | 0.04 | 41 | 1006.3 |
| 20260507204827 | 55 | 306 | 5.0 | 10.0 | 0.00 | 0.21 | 0.00 | 32 | 1008.2 |
| 20260507203425 | 57 | 358 | 5.0 | 15.0 | 0.00 | 0.21 | 0.00 | 28 | 1008.2 |
| 20260507203326 | 56 | 271 | 6.0 | 12.0 | 0.00 | 0.18 | 0.04 | 39 | 1006.3 |
| 20260507201912 | 57 | 276 | 4.0 | 6.0 | 0.00 | 0.24 | 0.04 | 41 | 1006.2 |
| 20260507200348 | 58 | 334 | 6.0 | 17.0 | 0.00 | 0.21 | 0.00 | 26 | 1008.1 |
| 20260507200313 | 56 | 311 | 4.0 | 9.0 | 0.00 | 0.24 | 0.04 | 41 | 1006.2 |
| 20260507194947 | 57 | 239 | 6.0 | 15.0 | 0.00 | 0.28 | 0.00 | 26 | 1008.1 |
| 20260507194922 | 56 | 299 | 4.0 | 10.0 | 0.00 | 0.24 | 0.04 | 42 | 1006.2 |
| 20260507194839 | 56 | 299 | 4.0 | 10.0 | 0.00 | 0.24 | 0.04 | 42 | 1006.2 |
| 20260507193439 | 57 | 264 | 6.0 | 14.0 | 0.00 | 0.28 | 0.00 | 28 | 1008.1 |
| 20260507193336 | 57 | 264 | 6.0 | 14.0 | 0.00 | 0.28 | 0.00 | 28 | 1008.1 |
| 20260507193314 | 56 | 306 | 3.0 | 9.0 | 0.00 | 0.24 | 0.04 | 44 | 1006.5 |
| 20260507191844 | 57 | 342 | 3.0 | 14.0 | 0.00 | 0.30 | 0.04 | 41 | 1006.5 |
| 20260507191837 | 56 | 253 | 7.0 | 15.0 | 0.00 | 0.28 | 0.00 | 25 | 1008.4 |
| 20260507190433 | 55 | 302 | 7.0 | 13.0 | 0.00 | 0.28 | 0.00 | 26 | 1008.5 |
| 20260507190351 | 55 | 302 | 7.0 | 13.0 | 0.00 | 0.28 | 0.00 | 26 | 1008.5 |
| 20260507190339 | 58 | 355 | 3.0 | 17.0 | 0.00 | 0.30 | 0.04 | 41 | 1006.6 |
| 20260507184851 | 55 | 297 | 11.0 | 16.0 | 0.00 | 0.35 | 0.00 | 28 | 1008.7 |
| 20260507184818 | 58 | 9 | 2.0 | 8.0 | 0.00 | 0.30 | 0.04 | 40 | 1006.6 |
| 20260507183422 | 55 | 201 | 5.0 | 12.0 | 0.00 | 0.35 | 0.00 | 26 | 1008.7 |
| 20260507183316 | 58 | 238 | 5.0 | 9.0 | 0.00 | 0.30 | 0.04 | 39 | 1006.7 |
| 20260507181857 | 56 | 282 | 7.0 | 13.0 | 0.00 | 0.35 | 0.00 | 27 | 1009.0 |
| 20260507181815 | 57 | 302 | 7.0 | 11.0 | 0.00 | 0.38 | 0.04 | 42 | 1007.1 |
| 20260507180346 | 56 | 268 | 7.0 | 15.0 | 0.00 | 0.35 | 0.00 | 28 | 1009.0 |
| 20260507180312 | 55 | 331 | 3.0 | 10.0 | 0.00 | 0.38 | 0.04 | 44 | 1007.3 |
| 20260507174852 | 56 | 212 | 5.0 | 13.0 | 0.00 | 0.43 | 0.00 | 29 | 1009.0 |
| 20260507174831 | 55 | 275 | 3.0 | 8.0 | 0.00 | 0.38 | 0.04 | 46 | 1007.1 |
| 20260507173415 | 53 | 306 | 4.0 | 9.0 | 0.00 | 0.38 | 0.04 | 46 | 1007.3 |
| 20260507173331 | 56 | 303 | 9.0 | 16.0 | 0.00 | 0.43 | 0.00 | 29 | 1009.0 |
| 20260507171845 | 56 | 230 | 8.0 | 20.0 | 0.00 | 0.43 | 0.00 | 30 | 1009.0 |
| 20260507171832 | 55 | 333 | 2.0 | 9.0 | 0.00 | 0.43 | 0.04 | 47 | 1007.3 |
| 20260507170419 | 54 | 261 | 2.0 | 6.0 | 0.00 | 0.43 | 0.04 | 49 | 1007.5 |
| 20260507170352 | 56 | 299 | 8.0 | 19.0 | 0.00 | 0.43 | 0.00 | 35 | 1009.0 |